sensor_id;sensor_type;location;lat;lon;timestamp;pressure;altitude;pressure_sealevel;temperature;humidity
63194;BME280;49289;51.670;5.624;2023-05-11T00:00:47;100055.40;;;22.04;69.05
63194;BME280;49289;51.670;5.624;2023-05-11T00:02:34;100045.84;;;22.00;69.17
63194;BME280;49289;51.670;5.624;2023-05-11T00:04:23;100023.37;;;21.87;69.38
63194;BME280;49289;51.670;5.624;2023-05-11T00:06:11;100049.14;;;22.02;69.21
63194;BME280;49289;51.670;5.624;2023-05-11T00:07:59;100040.20;;;21.98;69.38
63194;BME280;49289;51.670;5.624;2023-05-11T00:09:47;100039.93;;;21.99;69.37
63194;BME280;49289;51.670;5.624;2023-05-11T00:11:35;100038.15;;;21.96;69.51
63194;BME280;49289;51.670;5.624;2023-05-11T00:13:23;100046.41;;;22.00;69.52
63194;BME280;49289;51.670;5.624;2023-05-11T00:15:11;100015.23;;;21.84;69.55
63194;BME280;49289;51.670;5.624;2023-05-11T00:16:58;99914.58;;;21.63;69.99
63194;BME280;49289;51.670;5.624;2023-05-11T00:18:45;99908.14;;;21.54;70.56
63194;BME280;49289;51.670;5.624;2023-05-11T00:20:33;99955.52;;;21.70;70.71
63194;BME280;49289;51.670;5.624;2023-05-11T00:22:21;99974.75;;;21.77;70.47
63194;BME280;49289;51.670;5.624;2023-05-11T00:24:10;99980.70;;;21.80;70.63
63194;BME280;49289;51.670;5.624;2023-05-11T00:25:58;100033.87;;;21.92;70.23
63194;BME280;49289;51.670;5.624;2023-05-11T00:27:45;100008.91;;;21.87;69.91
63194;BME280;49289;51.670;5.624;2023-05-11T00:29:32;100033.98;;;21.95;69.45
63194;BME280;49289;51.670;5.624;2023-05-11T00:31:19;99964.48;;;21.81;69.33
63194;BME280;49289;51.670;5.624;2023-05-11T00:33:07;100027.53;;;21.96;69.29
63194;BME280;49289;51.670;5.624;2023-05-11T00:34:54;100038.07;;;22.00;69.07
63194;BME280;49289;51.670;5.624;2023-05-11T00:36:42;100022.86;;;21.96;68.99
63194;BME280;49289;51.670;5.624;2023-05-11T00:38:30;100032.98;;;21.99;68.94
63194;BME280;49289;51.670;5.624;2023-05-11T00:40:18;100031.13;;;22.01;68.76
63194;BME280;49289;51.670;5.624;2023-05-11T00:42:06;100027.14;;;21.99;68.74
63194;BME280;49289;51.670;5.624;2023-05-11T00:43:54;100014.13;;;21.90;68.54
63194;BME280;49289;51.670;5.624;2023-05-11T00:45:42;100041.06;;;22.03;68.49
63194;BME280;49289;51.670;5.624;2023-05-11T00:47:30;100012.91;;;21.97;68.43
63194;BME280;49289;51.670;5.624;2023-05-11T00:49:18;99935.73;;;21.74;68.77
63194;BME280;49289;51.670;5.624;2023-05-11T00:51:06;100003.64;;;21.92;68.63
63194;BME280;49289;51.670;5.624;2023-05-11T00:52:54;100027.09;;;22.02;68.21
63194;BME280;49289;51.670;5.624;2023-05-11T00:54:42;100045.23;;;22.08;67.97
63194;BME280;49289;51.670;5.624;2023-05-11T00:56:29;100032.92;;;22.02;68.11
63194;BME280;49289;51.670;5.624;2023-05-11T00:58:16;99989.95;;;21.91;68.41
63194;BME280;49289;51.670;5.624;2023-05-11T01:00:03;100013.61;;;21.99;68.12
63194;BME280;49289;51.670;5.624;2023-05-11T01:01:50;99983.09;;;21.92;68.01
63194;BME280;49289;51.670;5.624;2023-05-11T01:03:37;100010.27;;;21.91;68.03
63194;BME280;49289;51.670;5.624;2023-05-11T01:05:24;100028.67;;;22.04;67.90
63194;BME280;49289;51.670;5.624;2023-05-11T01:07:15;100028.52;;;22.01;68.09
63194;BME280;49289;51.670;5.624;2023-05-11T01:09:02;100027.48;;;21.99;68.26
63194;BME280;49289;51.670;5.624;2023-05-11T01:10:52;100044.73;;;22.05;68.28
63194;BME280;49289;51.670;5.624;2023-05-11T01:12:39;100006.52;;;21.94;68.64
63194;BME280;49289;51.670;5.624;2023-05-11T01:14:26;100066.35;;;22.10;68.41
63194;BME280;49289;51.670;5.624;2023-05-11T01:16:13;100084.86;;;22.16;68.21
63194;BME280;49289;51.670;5.624;2023-05-11T01:18:00;100068.16;;;22.11;68.19
63194;BME280;49289;51.670;5.624;2023-05-11T01:19:50;100081.51;;;22.16;68.04
63194;BME280;49289;51.670;5.624;2023-05-11T01:21:38;100082.08;;;22.17;67.93
63194;BME280;49289;51.670;5.624;2023-05-11T01:23:41;100114.95;;;22.26;67.60
63194;BME280;49289;51.670;5.624;2023-05-11T01:25:38;100111.21;;;22.25;67.54
63194;BME280;49289;51.670;5.624;2023-05-11T01:27:38;100067.17;;;22.06;67.54
63194;BME280;49289;51.670;5.624;2023-05-11T01:31:45;100030.59;;;22.03;67.71
63194;BME280;49289;51.670;5.624;2023-05-11T01:33:32;100109.05;;;22.22;67.80
63194;BME280;49289;51.670;5.624;2023-05-11T01:35:21;100113.26;;;22.27;67.46
63194;BME280;49289;51.670;5.624;2023-05-11T01:37:08;100141.51;;;22.31;67.28
63194;BME280;49289;51.670;5.624;2023-05-11T01:38:57;100127.90;;;22.31;67.27
63194;BME280;49289;51.670;5.624;2023-05-11T01:40:43;100087.85;;;22.17;67.43
63194;BME280;49289;51.670;5.624;2023-05-11T01:42:31;100095.72;;;22.21;67.65
63194;BME280;49289;51.670;5.624;2023-05-11T01:44:19;100120.29;;;22.27;67.62
63194;BME280;49289;51.670;5.624;2023-05-11T01:46:07;100118.17;;;22.24;67.58
63194;BME280;49289;51.670;5.624;2023-05-11T01:47:54;100037.75;;;21.95;67.96
63194;BME280;49289;51.670;5.624;2023-05-11T01:49:42;100046.66;;;22.04;68.15
63194;BME280;49289;51.670;5.624;2023-05-11T01:51:30;99922.82;;;21.64;68.67
63194;BME280;49289;51.670;5.624;2023-05-11T01:53:16;100043.52;;;21.94;68.71
63194;BME280;49289;51.670;5.624;2023-05-11T01:55:03;99927.83;;;21.64;69.04
63194;BME280;49289;51.670;5.624;2023-05-11T01:56:50;99799.50;;;21.44;69.37
63194;BME280;49289;51.670;5.624;2023-05-11T01:58:37;99827.09;;;21.39;70.61
63194;BME280;49289;51.670;5.624;2023-05-11T02:00:24;99844.14;;;21.44;70.73
63194;BME280;49289;51.670;5.624;2023-05-11T02:02:12;99917.50;;;21.63;70.63
63194;BME280;49289;51.670;5.624;2023-05-11T02:04:01;100023.77;;;21.92;69.93
63194;BME280;49289;51.670;5.624;2023-05-11T02:05:48;99898.69;;;21.59;70.38
63194;BME280;49289;51.670;5.624;2023-05-11T02:07:36;99975.67;;;21.81;69.74
63194;BME280;49289;51.670;5.624;2023-05-11T02:09:24;99935.05;;;21.71;69.80
63194;BME280;49289;51.670;5.624;2023-05-11T02:11:11;99897.38;;;21.57;70.42
63194;BME280;49289;51.670;5.624;2023-05-11T02:12:58;99898.07;;;21.56;70.77
63194;BME280;49289;51.670;5.624;2023-05-11T02:14:45;100028.19;;;21.88;69.70
63194;BME280;49289;51.670;5.624;2023-05-11T02:16:32;99922.28;;;21.61;69.73
63194;BME280;49289;51.670;5.624;2023-05-11T02:18:19;100074.52;;;22.07;69.53
63194;BME280;49289;51.670;5.624;2023-05-11T02:20:06;100086.48;;;22.04;69.25
63194;BME280;49289;51.670;5.624;2023-05-11T02:21:54;100029.50;;;21.98;68.99
63194;BME280;49289;51.670;5.624;2023-05-11T02:23:42;100097.81;;;22.12;69.23
63194;BME280;49289;51.670;5.624;2023-05-11T02:25:30;100084.73;;;22.10;69.17
63194;BME280;49289;51.670;5.624;2023-05-11T02:27:17;99998.83;;;21.86;69.49
63194;BME280;49289;51.670;5.624;2023-05-11T02:29:05;100036.38;;;21.97;69.39
63194;BME280;49289;51.670;5.624;2023-05-11T02:30:55;99975.23;;;21.82;69.25
63194;BME280;49289;51.670;5.624;2023-05-11T02:32:43;99945.38;;;21.72;69.99
63194;BME280;49289;51.670;5.624;2023-05-11T02:34:31;99986.70;;;21.81;69.97
63194;BME280;49289;51.670;5.624;2023-05-11T02:36:19;99876.39;;;21.55;69.94
63194;BME280;49289;51.670;5.624;2023-05-11T02:38:04;99821.14;;;21.37;70.96
63194;BME280;49289;51.670;5.624;2023-05-11T02:39:52;99942.09;;;21.69;70.46
63194;BME280;49289;51.670;5.624;2023-05-11T02:41:39;99631.91;;;20.81;71.71
63194;BME280;49289;51.670;5.624;2023-05-11T02:43:28;99631.31;;;20.83;72.73
63194;BME280;49289;51.670;5.624;2023-05-11T02:45:13;99735.43;;;21.06;73.26
63194;BME280;49289;51.670;5.624;2023-05-11T02:47:01;99836.91;;;21.37;71.95
63194;BME280;49289;51.670;5.624;2023-05-11T02:48:50;99774.08;;;21.21;72.45
63194;BME280;49289;51.670;5.624;2023-05-11T02:50:36;99686.80;;;21.01;72.30
63194;BME280;49289;51.670;5.624;2023-05-11T02:52:23;99537.59;;;20.61;72.87
63194;BME280;49289;51.670;5.624;2023-05-11T02:54:10;99566.91;;;20.54;74.20
63194;BME280;49289;51.670;5.624;2023-05-11T02:55:59;99497.52;;;20.45;74.09
63194;BME280;49289;51.670;5.624;2023-05-11T02:57:47;99600.19;;;20.71;74.02
63194;BME280;49289;51.670;5.624;2023-05-11T02:59:35;99737.44;;;21.10;72.88
63194;BME280;49289;51.670;5.624;2023-05-11T03:01:23;99598.34;;;20.75;72.64
63194;BME280;49289;51.670;5.624;2023-05-11T03:03:10;99516.69;;;20.49;74.23
63194;BME280;49289;51.670;5.624;2023-05-11T03:04:57;99566.34;;;20.57;73.67
63194;BME280;49289;51.670;5.624;2023-05-11T03:06:44;99739.31;;;21.12;72.50
63194;BME280;49289;51.670;5.624;2023-05-11T03:08:31;99613.48;;;20.77;72.08
63194;BME280;49289;51.670;5.624;2023-05-11T03:10:19;99722.43;;;21.10;72.26
63194;BME280;49289;51.670;5.624;2023-05-11T03:12:07;99745.23;;;21.16;71.82
63194;BME280;49289;51.670;5.624;2023-05-11T03:13:55;99802.37;;;21.32;71.20
63194;BME280;49289;51.670;5.624;2023-05-11T03:15:43;99853.80;;;21.50;70.30
63194;BME280;49289;51.670;5.624;2023-05-11T03:17:32;99861.97;;;21.54;69.54
63194;BME280;49289;51.670;5.624;2023-05-11T03:19:19;99781.92;;;21.36;69.37
63194;BME280;49289;51.670;5.624;2023-05-11T03:21:06;99822.98;;;21.41;69.62
63194;BME280;49289;51.670;5.624;2023-05-11T03:22:54;99843.36;;;21.50;69.26
63194;BME280;49289;51.670;5.624;2023-05-11T03:24:42;99837.66;;;21.51;68.87
63194;BME280;49289;51.670;5.624;2023-05-11T03:26:30;99826.10;;;21.49;68.51
63194;BME280;49289;51.670;5.624;2023-05-11T03:28:17;99776.48;;;21.33;68.12
63194;BME280;49289;51.670;5.624;2023-05-11T03:30:04;99770.11;;;21.31;67.90
63194;BME280;49289;51.670;5.624;2023-05-11T03:31:52;99773.83;;;21.40;67.78
63194;BME280;49289;51.670;5.624;2023-05-11T03:33:38;99728.95;;;21.21;67.65
63194;BME280;49289;51.670;5.624;2023-05-11T03:35:26;99728.36;;;21.22;67.64
63194;BME280;49289;51.670;5.624;2023-05-11T03:37:14;99720.61;;;21.28;67.59
63194;BME280;49289;51.670;5.624;2023-05-11T03:39:01;99728.84;;;21.29;67.66
63194;BME280;49289;51.670;5.624;2023-05-11T03:40:50;99719.16;;;21.25;67.82
63194;BME280;49289;51.670;5.624;2023-05-11T03:42:38;99712.99;;;21.22;68.11
63194;BME280;49289;51.670;5.624;2023-05-11T03:44:26;99715.01;;;21.21;68.20
63194;BME280;49289;51.670;5.624;2023-05-11T03:46:14;99718.09;;;21.24;67.87
63194;BME280;49289;51.670;5.624;2023-05-11T03:48:01;99718.37;;;21.16;68.20
63194;BME280;49289;51.670;5.624;2023-05-11T03:49:49;99747.58;;;21.31;67.97
63194;BME280;49289;51.670;5.624;2023-05-11T03:51:39;99747.34;;;21.30;68.28
63194;BME280;49289;51.670;5.624;2023-05-11T03:53:27;99780.34;;;21.40;68.19
63194;BME280;49289;51.670;5.624;2023-05-11T03:55:15;99781.34;;;21.40;68.13
63194;BME280;49289;51.670;5.624;2023-05-11T03:57:03;99777.08;;;21.37;68.22
63194;BME280;49289;51.670;5.624;2023-05-11T03:58:51;99803.91;;;21.44;68.41
63194;BME280;49289;51.670;5.624;2023-05-11T04:00:41;99810.16;;;21.45;68.39
63194;BME280;49289;51.670;5.624;2023-05-11T04:02:29;99841.66;;;21.51;68.34
63194;BME280;49289;51.670;5.624;2023-05-11T04:04:17;99826.02;;;21.48;68.47
63194;BME280;49289;51.670;5.624;2023-05-11T04:06:05;99869.59;;;21.60;68.41
63194;BME280;49289;51.670;5.624;2023-05-11T04:07:54;99904.52;;;21.69;68.17
63194;BME280;49289;51.670;5.624;2023-05-11T04:09:41;99900.69;;;21.69;68.07
63194;BME280;49289;51.670;5.624;2023-05-11T04:11:29;99890.38;;;21.66;68.13
63194;BME280;49289;51.670;5.624;2023-05-11T04:13:17;99914.81;;;21.72;68.21
63194;BME280;49289;51.670;5.624;2023-05-11T04:15:05;99929.59;;;21.76;68.13
63194;BME280;49289;51.670;5.624;2023-05-11T04:16:53;99939.32;;;21.78;68.04
63194;BME280;49289;51.670;5.624;2023-05-11T04:18:41;99948.06;;;21.80;67.98
63194;BME280;49289;51.670;5.624;2023-05-11T04:20:29;99970.50;;;21.87;67.89
63194;BME280;49289;51.670;5.624;2023-05-11T04:22:17;99958.82;;;21.86;67.68
63194;BME280;49289;51.670;5.624;2023-05-11T04:24:05;99980.87;;;21.91;67.67
63194;BME280;49289;51.670;5.624;2023-05-11T04:25:53;99988.34;;;21.93;67.63
63194;BME280;49289;51.670;5.624;2023-05-11T04:27:40;99933.18;;;21.76;67.86
63194;BME280;49289;51.670;5.624;2023-05-11T04:29:27;99919.20;;;21.70;68.28
63194;BME280;49289;51.670;5.624;2023-05-11T04:31:14;99969.77;;;21.86;68.12
63194;BME280;49289;51.670;5.624;2023-05-11T04:33:02;99986.58;;;21.89;68.16
63194;BME280;49289;51.670;5.624;2023-05-11T04:34:49;100021.58;;;21.97;68.06
63194;BME280;49289;51.670;5.624;2023-05-11T04:36:36;100019.39;;;21.98;67.89
63194;BME280;49289;51.670;5.624;2023-05-11T04:38:23;100023.54;;;21.99;67.84
63194;BME280;49289;51.670;5.624;2023-05-11T04:40:11;100048.88;;;22.06;67.73
63194;BME280;49289;51.670;5.624;2023-05-11T04:41:58;100064.75;;;22.10;67.53
63194;BME280;49289;51.670;5.624;2023-05-11T04:43:45;100077.44;;;22.15;67.35
63194;BME280;49289;51.670;5.624;2023-05-11T04:45:32;100075.06;;;22.13;67.24
63194;BME280;49289;51.670;5.624;2023-05-11T04:47:20;100024.13;;;21.95;67.14
63194;BME280;49289;51.670;5.624;2023-05-11T04:49:08;100039.95;;;22.03;67.63
63194;BME280;49289;51.670;5.624;2023-05-11T04:50:55;99988.86;;;21.82;67.67
63194;BME280;49289;51.670;5.624;2023-05-11T04:52:43;100021.73;;;21.98;67.58
63194;BME280;49289;51.670;5.624;2023-05-11T04:54:30;100040.04;;;22.04;67.92
63194;BME280;49289;51.670;5.624;2023-05-11T04:56:17;100055.36;;;22.00;67.70
63194;BME280;49289;51.670;5.624;2023-05-11T04:58:05;100044.59;;;22.07;67.57
63194;BME280;49289;51.670;5.624;2023-05-11T04:59:53;100069.03;;;22.05;67.71
63194;BME280;49289;51.670;5.624;2023-05-11T05:01:41;100138.73;;;22.28;67.57
63194;BME280;49289;51.670;5.624;2023-05-11T05:03:29;100158.57;;;22.35;67.45
63194;BME280;49289;51.670;5.624;2023-05-11T05:05:18;100155.37;;;22.36;67.29
63194;BME280;49289;51.670;5.624;2023-05-11T05:07:05;100154.00;;;22.25;67.48
63194;BME280;49289;51.670;5.624;2023-05-11T05:08:52;100052.73;;;22.04;66.77
63194;BME280;49289;51.670;5.624;2023-05-11T05:10:39;100082.36;;;22.07;67.72
63194;BME280;49289;51.670;5.624;2023-05-11T05:12:26;100135.97;;;22.22;67.46
63194;BME280;49289;51.670;5.624;2023-05-11T05:14:13;100190.88;;;22.42;67.14
63194;BME280;49289;51.670;5.624;2023-05-11T05:16:00;100025.09;;;22.02;67.15
63194;BME280;49289;51.670;5.624;2023-05-11T05:17:47;100126.31;;;22.26;67.64
63194;BME280;49289;51.670;5.624;2023-05-11T05:19:34;100046.97;;;22.02;66.97
63194;BME280;49289;51.670;5.624;2023-05-11T05:21:21;100049.81;;;22.05;67.40
63194;BME280;49289;51.670;5.624;2023-05-11T05:23:08;100133.91;;;22.27;67.50
63194;BME280;49289;51.670;5.624;2023-05-11T05:24:55;99851.51;;;21.55;67.84
63194;BME280;49289;51.670;5.624;2023-05-11T05:26:43;99940.20;;;21.76;68.29
63194;BME280;49289;51.670;5.624;2023-05-11T05:28:31;99853.11;;;21.54;68.30
63194;BME280;49289;51.670;5.624;2023-05-11T05:30:19;100007.34;;;21.91;68.56
63194;BME280;49289;51.670;5.624;2023-05-11T05:32:07;100075.55;;;22.10;68.38
63194;BME280;49289;51.670;5.624;2023-05-11T05:33:54;100070.61;;;22.02;68.28
63194;BME280;49289;51.670;5.624;2023-05-11T05:35:42;100190.88;;;22.38;67.85
63194;BME280;49289;51.670;5.624;2023-05-11T05:37:30;100041.35;;;21.99;67.28
63194;BME280;49289;51.670;5.624;2023-05-11T05:39:17;99886.03;;;21.63;68.05
63194;BME280;49289;51.670;5.624;2023-05-11T05:41:04;99844.62;;;21.45;69.29
63194;BME280;49289;51.670;5.624;2023-05-11T05:42:51;99810.80;;;21.33;70.28
63194;BME280;49289;51.670;5.624;2023-05-11T05:44:39;99886.77;;;21.58;69.25
63194;BME280;49289;51.670;5.624;2023-05-11T05:46:27;100006.42;;;21.91;68.89
63194;BME280;49289;51.670;5.624;2023-05-11T05:48:16;99855.09;;;21.44;69.23
63194;BME280;49289;51.670;5.624;2023-05-11T05:50:03;99917.08;;;21.63;69.53
63194;BME280;49289;51.670;5.624;2023-05-11T05:51:50;99890.86;;;21.62;69.16
63194;BME280;49289;51.670;5.624;2023-05-11T05:53:37;99773.88;;;21.30;69.33
63194;BME280;49289;51.670;5.624;2023-05-11T05:55:24;99615.14;;;20.86;70.27
63194;BME280;49289;51.670;5.624;2023-05-11T05:57:12;99601.82;;;20.72;72.72
63194;BME280;49289;51.670;5.624;2023-05-11T05:59:00;99520.56;;;20.55;72.66
63194;BME280;49289;51.670;5.624;2023-05-11T06:00:47;99652.91;;;20.81;74.02
63194;BME280;49289;51.670;5.624;2023-05-11T06:02:34;99899.91;;;21.52;71.54
63194;BME280;49289;51.670;5.624;2023-05-11T06:04:21;99764.06;;;21.21;71.27
63194;BME280;49289;51.670;5.624;2023-05-11T06:06:08;99833.20;;;21.30;71.57
63194;BME280;49289;51.670;5.624;2023-05-11T06:07:56;99917.16;;;21.63;70.34
63194;BME280;49289;51.670;5.624;2023-05-11T06:09:44;99869.59;;;21.44;70.35
63194;BME280;49289;51.670;5.624;2023-05-11T06:11:33;100003.77;;;21.90;69.03
63194;BME280;49289;51.670;5.624;2023-05-11T06:13:21;100008.53;;;21.90;69.25
63194;BME280;49289;51.670;5.624;2023-05-11T06:15:09;100106.70;;;22.19;68.37
63194;BME280;49289;51.670;5.624;2023-05-11T06:16:56;99792.40;;;21.38;69.15
63194;BME280;49289;51.670;5.624;2023-05-11T06:18:43;99591.35;;;20.75;71.33
63194;BME280;49289;51.670;5.624;2023-05-11T06:20:31;99549.70;;;20.53;72.85
63194;BME280;49289;51.670;5.624;2023-05-11T06:22:18;99439.19;;;20.28;74.10
63194;BME280;49289;51.670;5.624;2023-05-11T06:24:05;99556.81;;;20.47;74.60
63194;BME280;49289;51.670;5.624;2023-05-11T06:25:52;99526.86;;;20.49;73.48
63194;BME280;49289;51.670;5.624;2023-05-11T06:27:39;99522.09;;;20.46;73.04
63194;BME280;49289;51.670;5.624;2023-05-11T06:29:26;99487.31;;;20.37;73.81
63194;BME280;49289;51.670;5.624;2023-05-11T06:31:13;99490.16;;;20.40;74.53
63194;BME280;49289;51.670;5.624;2023-05-11T06:33:00;99463.33;;;20.29;74.20
63194;BME280;49289;51.670;5.624;2023-05-11T06:34:47;99675.48;;;20.84;73.51
63194;BME280;49289;51.670;5.624;2023-05-11T06:36:34;99534.03;;;20.53;73.97
63194;BME280;49289;51.670;5.624;2023-05-11T06:38:22;99742.58;;;21.02;73.60
63194;BME280;49289;51.670;5.624;2023-05-11T06:40:11;99845.38;;;21.39;71.97
63194;BME280;49289;51.670;5.624;2023-05-11T06:41:58;99904.77;;;21.59;70.83
63194;BME280;49289;51.670;5.624;2023-05-11T06:43:45;99916.38;;;21.59;69.85
63194;BME280;49289;51.670;5.624;2023-05-11T06:45:32;99843.92;;;21.41;69.34
63194;BME280;49289;51.670;5.624;2023-05-11T06:47:20;99977.23;;;21.70;70.10
63194;BME280;49289;51.670;5.624;2023-05-11T06:49:08;99931.64;;;21.70;69.64
63194;BME280;49289;51.670;5.624;2023-05-11T06:50:56;100091.37;;;22.12;69.08
63194;BME280;49289;51.670;5.624;2023-05-11T06:52:44;100237.09;;;22.45;68.54
63194;BME280;49289;51.670;5.624;2023-05-11T06:54:32;100231.06;;;22.50;67.68
63194;BME280;49289;51.670;5.624;2023-05-11T06:56:21;100198.08;;;22.48;66.63
63194;BME280;49289;51.670;5.624;2023-05-11T06:58:09;100214.95;;;22.49;67.22
63194;BME280;49289;51.670;5.624;2023-05-11T06:59:57;99928.30;;;21.78;66.01
63194;BME280;49289;51.670;5.624;2023-05-11T07:01:45;99888.27;;;21.63;68.08
63194;BME280;49289;51.670;5.624;2023-05-11T07:03:32;99999.94;;;21.93;67.46
63194;BME280;49289;51.670;5.624;2023-05-11T07:05:21;99919.25;;;21.72;67.66
63194;BME280;49289;51.670;5.624;2023-05-11T07:07:09;100080.43;;;22.08;67.64
63194;BME280;49289;51.670;5.624;2023-05-11T07:08:57;99989.30;;;21.95;66.86
63194;BME280;49289;51.670;5.624;2023-05-11T07:10:45;99906.67;;;21.66;68.27
63194;BME280;49289;51.670;5.624;2023-05-11T07:12:33;100095.17;;;22.10;69.24
63194;BME280;49289;51.670;5.624;2023-05-11T07:14:20;100235.66;;;22.50;67.22
63194;BME280;49289;51.670;5.624;2023-05-11T07:16:07;99878.62;;;21.60;67.89
63194;BME280;49289;51.670;5.624;2023-05-11T07:17:54;99954.87;;;21.77;68.44
63194;BME280;49289;51.670;5.624;2023-05-11T07:19:41;99903.78;;;21.68;67.70
63194;BME280;49289;51.670;5.624;2023-05-11T07:21:28;100023.92;;;21.89;67.92
63194;BME280;49289;51.670;5.624;2023-05-11T07:23:16;100137.53;;;22.25;67.79
63194;BME280;49289;51.670;5.624;2023-05-11T07:25:04;100023.30;;;21.95;68.58
63194;BME280;49289;51.670;5.624;2023-05-11T07:26:53;100269.91;;;22.61;67.24
63194;BME280;49289;51.670;5.624;2023-05-11T07:28:41;100267.16;;;22.61;66.74
63194;BME280;49289;51.670;5.624;2023-05-11T07:30:29;100318.93;;;22.67;66.55
63194;BME280;49289;51.670;5.624;2023-05-11T07:32:18;100401.83;;;22.94;66.40
63194;BME280;49289;51.670;5.624;2023-05-11T07:34:05;100557.45;;;23.41;65.37
63194;BME280;49289;51.670;5.624;2023-05-11T07:35:54;100640.19;;;23.67;63.88
63194;BME280;49289;51.670;5.624;2023-05-11T07:37:42;100520.05;;;23.39;63.21
63194;BME280;49289;51.670;5.624;2023-05-11T07:39:30;100292.01;;;22.80;63.95
63194;BME280;49289;51.670;5.624;2023-05-11T07:41:18;100551.20;;;23.39;64.76
63194;BME280;49289;51.670;5.624;2023-05-11T07:43:06;100743.27;;;23.94;63.66
63194;BME280;49289;51.670;5.624;2023-05-11T07:44:54;100545.73;;;23.52;62.33
63194;BME280;49289;51.670;5.624;2023-05-11T07:46:42;100497.27;;;23.34;62.66
63194;BME280;49289;51.670;5.624;2023-05-11T07:48:30;100661.06;;;23.81;62.08
63194;BME280;49289;51.670;5.624;2023-05-11T07:50:19;100549.95;;;23.57;61.31
63194;BME280;49289;51.670;5.624;2023-05-11T07:52:06;100651.38;;;23.69;62.27
63194;BME280;49289;51.670;5.624;2023-05-11T07:53:54;100867.05;;;24.29;62.12
63194;BME280;49289;51.670;5.624;2023-05-11T07:55:41;100924.06;;;24.43;62.22
63194;BME280;49289;51.670;5.624;2023-05-11T07:57:29;100928.91;;;24.49;61.41
63194;BME280;49289;51.670;5.624;2023-05-11T07:59:17;100871.63;;;24.41;60.09
63194;BME280;49289;51.670;5.624;2023-05-11T08:01:05;100552.41;;;23.66;59.59
63194;BME280;49289;51.670;5.624;2023-05-11T08:02:52;100803.55;;;24.20;60.68
63194;BME280;49289;51.670;5.624;2023-05-11T08:04:39;100376.69;;;23.16;60.33
63194;BME280;49289;51.670;5.624;2023-05-11T08:06:28;100700.06;;;23.91;61.36
63194;BME280;49289;51.670;5.624;2023-05-11T08:08:16;100858.22;;;24.35;60.13
63194;BME280;49289;51.670;5.624;2023-05-11T08:10:03;100987.73;;;24.72;59.56
63194;BME280;49289;51.670;5.624;2023-05-11T08:11:50;101049.45;;;24.89;59.46
63194;BME280;49289;51.670;5.624;2023-05-11T08:13:37;100987.00;;;24.71;58.64
63194;BME280;49289;51.670;5.624;2023-05-11T08:15:25;101016.95;;;24.84;58.75
63194;BME280;49289;51.670;5.624;2023-05-11T08:17:13;100847.08;;;24.51;56.90
63194;BME280;49289;51.670;5.624;2023-05-11T08:19:01;100859.74;;;24.51;57.67
63194;BME280;49289;51.670;5.624;2023-05-11T08:20:49;100973.24;;;24.76;57.95
63194;BME280;49289;51.670;5.624;2023-05-11T08:22:37;100894.73;;;24.63;56.95
63194;BME280;49289;51.670;5.624;2023-05-11T08:24:25;100888.92;;;24.62;55.99
63194;BME280;49289;51.670;5.624;2023-05-11T08:26:14;100594.55;;;23.91;56.58
63194;BME280;49289;51.670;5.624;2023-05-11T08:28:01;100777.56;;;24.33;57.04
63194;BME280;49289;51.670;5.624;2023-05-11T08:29:48;100752.80;;;24.28;56.64
63194;BME280;49289;51.670;5.624;2023-05-11T08:31:35;100716.40;;;24.13;56.67
63194;BME280;49289;51.670;5.624;2023-05-11T08:33:24;100806.59;;;24.44;56.23
63194;BME280;49289;51.670;5.624;2023-05-11T08:35:12;100715.19;;;24.19;56.43
63194;BME280;49289;51.670;5.624;2023-05-11T08:37:00;100883.69;;;24.54;56.41
63194;BME280;49289;51.670;5.624;2023-05-11T08:38:48;100643.99;;;24.06;55.67
63194;BME280;49289;51.670;5.624;2023-05-11T08:40:36;100617.38;;;23.89;57.28
63194;BME280;49289;51.670;5.624;2023-05-11T08:42:24;100826.77;;;24.40;57.88
63194;BME280;49289;51.670;5.624;2023-05-11T08:44:12;100770.23;;;24.22;57.14
63194;BME280;49289;51.670;5.624;2023-05-11T08:46:01;100826.38;;;24.50;56.43
63194;BME280;49289;51.670;5.624;2023-05-11T08:47:47;100238.36;;;22.81;59.75
63194;BME280;49289;51.670;5.624;2023-05-11T08:49:34;100068.95;;;22.28;62.01
63194;BME280;49289;51.670;5.624;2023-05-11T08:51:21;100323.45;;;22.88;62.82
63194;BME280;49289;51.670;5.624;2023-05-11T08:53:08;100155.36;;;22.51;62.21
63194;BME280;49289;51.670;5.624;2023-05-11T08:54:40;99576.53;;;20.87;65.79
63194;BME280;49289;51.670;5.624;2023-05-11T08:56:29;99822.77;;;21.49;66.56
63194;BME280;49289;51.670;5.624;2023-05-11T08:58:17;99477.17;;;20.54;68.52
63194;BME280;49289;51.670;5.624;2023-05-11T09:00:05;99828.48;;;21.37;69.70
63194;BME280;49289;51.670;5.624;2023-05-11T09:01:52;99586.70;;;20.78;69.57
63194;BME280;49289;51.670;5.624;2023-05-11T09:03:40;99534.66;;;20.55;71.03
63194;BME280;49289;51.670;5.624;2023-05-11T09:05:27;99619.53;;;20.78;72.18
63194;BME280;49289;51.670;5.624;2023-05-11T09:07:14;99533.06;;;20.55;72.92
63194;BME280;49289;51.670;5.624;2023-05-11T09:09:01;99621.89;;;20.77;72.78
63194;BME280;49289;51.670;5.624;2023-05-11T09:10:48;99302.17;;;19.96;73.64
63194;BME280;49289;51.670;5.624;2023-05-11T09:12:35;99360.30;;;20.12;73.00
63194;BME280;49289;51.670;5.624;2023-05-11T09:14:22;99562.51;;;20.63;73.33
63194;BME280;49289;51.670;5.624;2023-05-11T09:16:10;99582.17;;;20.68;71.93
63194;BME280;49289;51.670;5.624;2023-05-11T09:17:58;99444.45;;;20.31;71.99
63194;BME280;49289;51.670;5.624;2023-05-11T09:19:52;99303.47;;;19.98;73.88
63194;BME280;49289;51.670;5.624;2023-05-11T09:21:41;99531.53;;;20.49;74.86
63194;BME280;49289;51.670;5.624;2023-05-11T09:23:28;99525.90;;;20.55;73.34
63194;BME280;49289;51.670;5.624;2023-05-11T09:25:17;99650.00;;;20.80;73.92
63194;BME280;49289;51.670;5.624;2023-05-11T09:27:13;99756.14;;;21.13;72.59
63194;BME280;49289;51.670;5.624;2023-05-11T09:29:01;99772.45;;;21.16;72.99